US-0059 weather

Public forecast

Using degrees Fahrenheit for public forecast. Weather courtesy of forecast.io.

Closest aviation weather report (METAR) to Chicken Strip

Closest report is Eastern Sierra Regional Airport, 44.0 nm (81.4 km) NW. Retrieved 2020/08/09 00:56 UTC (52 minutes ago):

KBIH 090056Z AUTO 15013KT 10SM CLR 34/M04 A2998 RMK AO2 SLP103 T03441039

Closest aviation forecast (TAF) to Chicken Strip

Closest forecast is Eastern Sierra Regional Airport, 44.0 nm (81.4 km) NW. Retrieved 2020-08-09 00:28 UTC (1 hour ago):

TAF KBIH 082325Z 0900/0924 16010G18KT P6SM SKC FM090300 15008KT P6SM SKC FM090900 30006KT P6SM SKC FM091700 VRB05KT P6SM SKC FM092100 16011G20KT P6SM SKC